Time;durP1;ratioP1;P1;durP2;ratioP2;P2;SDS_P1;SDS_P2;PMS_P1;PMS_P2;Temp;Humidity;BMP_temperature;BMP_pressure;BME280_temperature;BME280_humidity;BME280_pressure;Samples;Min_cycle;Max_cycle;Signal;HPM_P1;HPM_P2
2023/09/15 00:01:13;;;;;;;7.50;6.83;;;12.30;99.90;;;;;;5034658;28;20441;-75
2023/09/15 00:03:42;;;;;;;7.43;6.73;;;12.30;99.90;;;;;;5034638;28;20458;-75
2023/09/15 00:06:11;;;;;;;7.67;6.97;;;12.30;99.90;;;;;;5033056;28;20461;-75
2023/09/15 00:08:39;;;;;;;7.53;6.93;;;12.20;99.90;;;;;;5033018;28;20447;-75
2023/09/15 00:11:15;;;;;;;8.37;7.67;;;12.20;99.90;;;;;;5032903;28;20561;-75
2023/09/15 00:13:44;;;;;;;7.43;6.83;;;12.20;99.90;;;;;;5033142;28;20473;-75
2023/09/15 00:16:12;;;;;;;8.47;7.67;;;12.20;99.90;;;;;;5034132;28;21015;-75
2023/09/15 00:18:42;;;;;;;6.93;6.43;;;12.10;99.90;;;;;;5034153;28;20807;-74
2023/09/15 00:21:14;;;;;;;7.60;6.90;;;12.10;99.90;;;;;;5034077;28;20962;-74
2023/09/15 00:23:43;;;;;;;8.33;7.60;;;12.10;99.90;;;;;;5032888;28;20561;-74
2023/09/15 00:26:11;;;;;;;8.20;7.50;;;12.10;99.90;;;;;;5035828;28;20446;-74
2023/09/15 00:28:39;;;;;;;7.17;6.57;;;12.10;99.90;;;;;;5033044;28;20504;-74
2023/09/15 00:31:09;;;;;;;7.80;7.20;;;12.00;99.90;;;;;;5034005;28;20566;-74
2023/09/15 00:33:37;;;;;;;8.03;7.20;;;12.00;99.90;;;;;;5033822;28;20818;-74
2023/09/15 00:36:06;;;;;;;7.87;7.17;;;12.00;99.90;;;;;;5032605;28;20501;-74
2023/09/15 00:38:36;;;;;;;7.83;7.13;;;12.00;99.90;;;;;;5032574;28;20443;-74
2023/09/15 00:41:04;;;;;;;8.00;7.27;;;11.90;99.90;;;;;;5032546;28;20496;-74
2023/09/15 00:43:33;;;;;;;8.40;7.70;;;11.90;99.90;;;;;;5031841;28;20470;-74
2023/09/15 00:46:12;;;;;;;8.47;7.77;;;11.90;99.90;;;;;;5032902;28;20486;-74
2023/09/15 00:48:48;;;;;;;9.33;8.53;;;11.90;99.90;;;;;;5032939;28;20960;-75
2023/09/15 00:51:16;;;;;;;8.13;7.50;;;11.90;99.90;;;;;;5033572;28;20487;-74
2023/09/15 00:53:46;;;;;;;8.73;8.03;;;11.80;99.90;;;;;;5032582;28;21075;-75
2023/09/15 00:56:14;;;;;;;9.67;8.80;;;11.80;99.90;;;;;;5032325;28;20458;-75
2023/09/15 00:58:42;;;;;;;8.50;7.90;;;11.80;99.90;;;;;;5032441;28;20636;-75
2023/09/15 01:01:11;;;;;;;9.47;8.57;;;11.80;99.90;;;;;;5032429;28;20492;-75
2023/09/15 01:03:41;;;;;;;9.53;8.77;;;11.70;99.90;;;;;;5032269;28;20811;-74
2023/09/15 01:06:11;;;;;;;8.90;8.30;;;11.70;99.90;;;;;;5032270;28;20440;-75
2023/09/15 01:08:41;;;;;;;9.40;8.70;;;11.70;99.90;;;;;;5033710;28;20933;-75
2023/09/15 01:11:10;;;;;;;9.07;8.30;;;11.70;99.90;;;;;;5032077;28;20502;-75
2023/09/15 01:13:39;;;;;;;9.57;8.77;;;11.70;99.90;;;;;;5033280;28;20973;-75
2023/09/15 01:16:16;;;;;;;9.10;8.30;;;11.70;99.90;;;;;;5032104;28;20447;-75
2023/09/15 01:18:54;;;;;;;9.50;8.60;;;11.70;99.90;;;;;;5032221;28;20435;-74
2023/09/15 01:22:03;;;;;;;9.43;8.70;;;11.60;99.90;;;;;;5034011;28;20443;-74
2023/09/15 01:25:10;;;;;;;9.70;8.80;;;11.60;99.90;;;;;;5030700;28;20459;-74
2023/09/15 01:27:52;;;;;;;9.80;9.00;;;11.50;99.90;;;;;;5033745;28;20914;-74
2023/09/15 01:30:24;;;;;;;10.00;9.10;;;11.50;99.90;;;;;;5032007;28;20917;-74
2023/09/15 01:32:56;;;;;;;9.67;8.97;;;11.50;99.90;;;;;;5032081;28;20435;-74
2023/09/15 01:35:26;;;;;;;10.00;9.20;;;11.50;99.90;;;;;;5031982;28;20443;-74
2023/09/15 01:37:54;;;;;;;10.03;9.30;;;11.50;99.90;;;;;;5031854;28;20451;-75
2023/09/15 01:40:22;;;;;;;9.13;8.40;;;11.50;99.90;;;;;;5031878;28;20873;-75
2023/09/15 01:42:51;;;;;;;9.70;8.77;;;11.40;99.90;;;;;;5048461;23;20482;-73
2023/09/15 01:45:21;;;;;;;9.30;8.60;;;11.40;99.90;;;;;;5051434;28;20825;-73
2023/09/15 01:47:51;;;;;;;9.50;8.70;;;11.40;99.90;;;;;;5051624;28;20445;-73
2023/09/15 01:50:20;;;;;;;10.43;9.33;;;11.40;99.90;;;;;;5051873;28;20868;-74
2023/09/15 01:52:49;;;;;;;11.03;10.03;;;11.40;99.90;;;;;;5053203;28;20967;-73
2023/09/15 01:55:18;;;;;;;11.10;10.20;;;11.40;99.90;;;;;;5055289;28;20984;-73
2023/09/15 01:57:47;;;;;;;11.20;10.10;;;11.30;99.90;;;;;;5057084;28;20886;-74
2023/09/15 02:00:16;;;;;;;10.60;9.80;;;11.30;99.90;;;;;;5055428;28;20857;-74
2023/09/15 02:02:45;;;;;;;11.67;10.77;;;11.30;99.90;;;;;;5055506;28;20554;-73
2023/09/15 02:05:22;;;;;;;10.50;9.60;;;11.30;99.90;;;;;;5056632;28;20841;-73
2023/09/15 02:07:50;;;;;;;11.03;10.03;;;11.20;99.90;;;;;;5055343;28;20441;-73
2023/09/15 02:10:18;;;;;;;10.43;9.63;;;11.20;99.90;;;;;;5056591;28;20789;-73
2023/09/15 02:12:46;;;;;;;10.97;10.07;;;11.20;99.90;;;;;;5055273;28;20984;-73
2023/09/15 02:15:15;;;;;;;10.90;10.00;;;11.20;99.90;;;;;;5056406;28;20452;-73
2023/09/15 02:17:45;;;;;;;12.00;11.00;;;11.20;99.90;;;;;;5056410;28;20446;-73
2023/09/15 02:20:13;;;;;;;11.53;10.63;;;11.20;99.90;;;;;;5055080;28;20944;-74
2023/09/15 02:22:42;;;;;;;10.70;9.90;;;11.20;99.90;;;;;;5055047;28;20495;-73
2023/09/15 02:25:10;;;;;;;12.07;11.07;;;11.20;99.90;;;;;;5054941;28;20458;-73
2023/09/15 02:27:38;;;;;;;10.60;9.80;;;11.10;99.90;;;;;;5056294;28;20809;-74
2023/09/15 02:30:08;;;;;;;12.40;11.40;;;11.10;99.90;;;;;;5056504;28;20460;-74
2023/09/15 02:32:36;;;;;;;11.50;10.40;;;11.10;99.90;;;;;;5054866;28;20466;-74
2023/09/15 02:35:08;;;;;;;11.53;10.63;;;11.10;99.90;;;;;;5054785;28;20508;-74
2023/09/15 02:37:36;;;;;;;11.77;10.80;;;11.10;99.90;;;;;;5054789;28;20796;-73
2023/09/15 02:40:06;;;;;;;12.70;11.63;;;11.10;99.90;;;;;;5056153;28;20441;-73
2023/09/15 02:42:35;;;;;;;11.97;11.00;;;11.00;99.90;;;;;;5054726;28;20458;-74
2023/09/15 02:45:04;;;;;;;13.47;12.37;;;11.00;99.90;;;;;;5054709;28;21018;-73
2023/09/15 02:47:34;;;;;;;12.97;11.87;;;11.00;99.90;;;;;;5054793;28;20934;-73
2023/09/15 02:50:03;;;;;;;12.53;11.53;;;11.00;99.90;;;;;;5054643;28;20446;-73
2023/09/15 02:52:33;;;;;;;12.37;11.33;;;11.00;99.90;;;;;;5054711;28;20980;-74
2023/09/15 02:55:01;;;;;;;12.13;11.03;;;10.90;99.90;;;;;;5054500;28;20473;-74
2023/09/15 02:57:31;;;;;;;12.27;11.27;;;10.90;99.90;;;;;;5054632;28;20457;-74
2023/09/15 03:00:03;;;;;;;12.93;11.93;;;10.90;99.90;;;;;;5054547;28;20816;-73
2023/09/15 03:02:32;;;;;;;11.90;10.90;;;10.90;99.90;;;;;;5054594;28;20998;-73
2023/09/15 03:05:04;;;;;;;12.47;11.47;;;10.80;99.90;;;;;;5053722;28;20466;-73
2023/09/15 03:07:36;;;;;;;12.23;11.17;;;10.80;99.90;;;;;;5054581;28;20793;-73
2023/09/15 03:10:05;;;;;;;12.43;11.33;;;10.80;99.90;;;;;;5054437;28;20452;-73
2023/09/15 03:12:33;;;;;;;12.07;11.17;;;10.80;99.90;;;;;;5054310;28;20532;-73
2023/09/15 03:15:04;;;;;;;13.27;12.17;;;10.80;99.90;;;;;;5054273;28;20458;-73
2023/09/15 03:17:33;;;;;;;12.27;11.27;;;10.80;99.90;;;;;;5054407;28;20878;-73
2023/09/15 03:20:09;;;;;;;12.87;11.67;;;10.80;99.90;;;;;;5055707;28;20521;-73
2023/09/15 03:22:38;;;;;;;12.57;11.57;;;10.70;99.90;;;;;;5054097;28;20856;-73
2023/09/15 03:25:07;;;;;;;12.70;11.70;;;10.70;99.90;;;;;;5054027;28;20960;-73
2023/09/15 03:27:35;;;;;;;13.30;12.30;;;10.70;99.90;;;;;;5054034;28;20851;-73
2023/09/15 03:30:06;;;;;;;12.00;10.90;;;10.70;99.90;;;;;;5053829;28;20492;-73
2023/09/15 03:32:34;;;;;;;11.87;10.77;;;10.70;99.90;;;;;;5054792;28;20462;-73
2023/09/15 03:35:05;;;;;;;11.90;10.80;;;10.70;99.90;;;;;;5053869;28;20991;-73
2023/09/15 03:37:33;;;;;;;11.90;10.90;;;10.70;99.90;;;;;;5053845;28;20488;-73
2023/09/15 03:40:04;;;;;;;11.03;10.13;;;10.60;99.90;;;;;;5054995;28;20528;-73
2023/09/15 03:42:34;;;;;;;12.03;11.20;;;10.60;99.90;;;;;;5053667;28;20458;-73
2023/09/15 03:45:03;;;;;;;11.20;10.30;;;10.60;99.90;;;;;;5053554;28;20468;-73
2023/09/15 03:47:31;;;;;;;10.00;9.20;;;10.60;99.90;;;;;;5053551;28;20449;-73
2023/09/15 03:50:00;;;;;;;11.27;10.33;;;10.60;99.90;;;;;;5054859;28;20462;-73
2023/09/15 03:52:28;;;;;;;10.17;9.37;;;10.60;99.90;;;;;;5054983;28;20468;-73
2023/09/15 03:55:00;;;;;;;11.03;10.10;;;10.60;99.90;;;;;;5053445;28;21004;-73
2023/09/15 03:57:31;;;;;;;11.17;10.27;;;10.60;99.90;;;;;;5053528;28;20534;-73
2023/09/15 03:59:59;;;;;;;11.50;10.60;;;10.50;99.90;;;;;;5053410;28;20450;-73
2023/09/15 04:02:29;;;;;;;11.00;10.00;;;10.50;99.90;;;;;;5053318;28;20489;-73
2023/09/15 04:04:57;;;;;;;10.13;9.40;;;10.50;99.90;;;;;;5053307;28;20469;-73
2023/09/15 04:07:25;;;;;;;11.43;10.43;;;10.50;99.90;;;;;;5053246;28;21014;-73
2023/09/15 04:09:54;;;;;;;14.07;12.77;;;10.50;99.90;;;;;;5053143;28;21029;-73
2023/09/15 04:12:22;;;;;;;15.57;14.00;;;10.50;99.90;;;;;;5053032;28;20519;-73
2023/09/15 04:14:51;;;;;;;13.63;12.43;;;10.40;99.90;;;;;;5054415;28;20515;-73
2023/09/15 04:17:20;;;;;;;13.90;12.70;;;10.40;99.90;;;;;;5052063;28;20454;-73
2023/09/15 04:19:48;;;;;;;12.03;11.03;;;10.40;99.90;;;;;;5053090;28;20971;-73
2023/09/15 04:22:16;;;;;;;11.60;10.60;;;10.40;99.90;;;;;;5053083;28;20961;-73
2023/09/15 04:24:45;;;;;;;11.77;10.77;;;10.40;99.90;;;;;;5052856;28;20992;-73
2023/09/15 04:27:13;;;;;;;11.27;10.37;;;10.40;99.90;;;;;;5052822;28;20442;-73
2023/09/15 04:29:54;;;;;;;11.30;10.50;;;10.40;99.90;;;;;;5052864;28;20446;-73
2023/09/15 04:32:24;;;;;;;9.80;9.03;;;10.40;99.90;;;;;;5053209;28;20822;-73
2023/09/15 04:34:54;;;;;;;12.93;11.73;;;10.30;99.90;;;;;;5053303;28;20516;-73
2023/09/15 04:37:23;;;;;;;15.87;14.40;;;10.30;99.90;;;;;;5052989;28;20454;-73
2023/09/15 04:39:53;;;;;;;15.40;13.90;;;10.30;99.90;;;;;;5052827;28;20545;-73
2023/09/15 04:42:22;;;;;;;13.33;12.03;;;10.30;99.90;;;;;;5052708;28;20454;-73
2023/09/15 04:44:51;;;;;;;14.27;13.03;;;10.30;99.90;;;;;;5053908;28;20456;-73
2023/09/15 04:47:31;;;;;;;18.63;16.93;;;10.30;99.90;;;;;;5053561;28;20450;-73
2023/09/15 04:50:01;;;;;;;17.77;16.17;;;10.30;99.90;;;;;;5055620;28;20530;-73
2023/09/15 04:52:29;;;;;;;15.00;13.60;;;10.30;99.90;;;;;;5055146;28;20504;-73
2023/09/15 04:54:57;;;;;;;13.40;12.20;;;10.20;99.90;;;;;;5052974;28;20462;-74
2023/09/15 04:57:26;;;;;;;15.33;14.03;;;10.20;99.90;;;;;;5052896;28;20817;-73
2023/09/15 04:59:56;;;;;;;13.27;12.07;;;10.20;99.90;;;;;;5053647;28;20441;-73
2023/09/15 05:02:24;;;;;;;11.47;10.67;;;10.20;99.90;;;;;;5052330;28;20525;-73
2023/09/15 05:04:53;;;;;;;11.10;10.20;;;10.20;99.90;;;;;;5052629;28;20464;-73
2023/09/15 05:07:21;;;;;;;10.70;9.90;;;10.20;99.90;;;;;;5052298;28;20857;-73
2023/09/15 05:09:50;;;;;;;10.17;9.37;;;10.20;99.90;;;;;;5052054;28;20509;-73
2023/09/15 05:12:18;;;;;;;10.80;9.80;;;10.20;99.90;;;;;;5053556;28;20441;-73
2023/09/15 05:14:46;;;;;;;10.17;9.37;;;10.20;99.90;;;;;;5052064;28;21018;-72
2023/09/15 05:17:17;;;;;;;10.60;9.80;;;10.20;99.90;;;;;;5052102;28;20446;-73
2023/09/15 05:19:47;;;;;;;10.17;9.37;;;10.20;99.90;;;;;;5052298;28;20496;-73
2023/09/15 05:22:15;;;;;;;10.00;9.00;;;10.20;99.90;;;;;;5051905;28;20438;-73
2023/09/15 05:24:43;;;;;;;10.20;9.40;;;10.20;99.90;;;;;;5052751;28;20462;-73
2023/09/15 05:27:11;;;;;;;10.10;9.13;;;10.20;99.90;;;;;;5051876;28;20446;-73
2023/09/15 05:29:40;;;;;;;9.30;8.57;;;10.20;99.90;;;;;;5057045;28;20455;-73
2023/09/15 05:32:08;;;;;;;9.20;8.43;;;10.20;99.90;;;;;;5058620;28;20442;-73
2023/09/15 05:34:39;;;;;;;8.50;7.70;;;10.20;99.90;;;;;;5058482;28;20552;-74
2023/09/15 05:37:07;;;;;;;8.97;7.60;;;10.20;99.90;;;;;;5058567;28;20537;-74
2023/09/15 05:39:35;;;;;;;9.17;8.27;;;10.20;99.90;;;;;;5058384;28;20537;-73
2023/09/15 05:42:04;;;;;;;8.67;8.07;;;10.20;99.90;;;;;;5058473;28;20450;-74
2023/09/15 05:44:32;;;;;;;8.40;7.60;;;10.20;99.90;;;;;;5059740;28;21046;-74
2023/09/15 05:47:00;;;;;;;8.70;7.90;;;10.20;99.90;;;;;;5058508;28;20968;-74
2023/09/15 05:49:29;;;;;;;7.73;7.13;;;10.30;99.90;;;;;;5060056;28;20526;-74
2023/09/15 05:52:00;;;;;;;8.23;7.43;;;10.30;99.90;;;;;;5060786;28;20430;-74
2023/09/15 05:54:28;;;;;;;8.93;8.23;;;10.30;99.90;;;;;;5065015;28;20477;-74
2023/09/15 05:56:56;;;;;;;9.20;8.20;;;10.30;99.90;;;;;;5063653;28;20434;-74
2023/09/15 05:59:24;;;;;;;9.57;8.50;;;10.40;99.90;;;;;;5059869;28;20457;-74
2023/09/15 06:01:52;;;;;;;9.33;7.57;;;10.40;99.90;;;;;;5062826;28;20437;-74
2023/09/15 06:04:20;;;;;;;8.63;7.40;;;10.40;99.90;;;;;;5060344;28;20477;-74
2023/09/15 06:06:49;;;;;;;8.33;7.63;;;10.40;99.90;;;;;;5059074;28;20469;-74
2023/09/15 06:09:18;;;;;;;8.93;8.13;;;10.40;99.90;;;;;;5060514;28;20430;-74
2023/09/15 06:11:46;;;;;;;11.10;7.97;;;10.50;99.90;;;;;;5058990;28;20442;-74
2023/09/15 06:14:14;;;;;;;8.03;7.37;;;10.50;99.90;;;;;;5059043;28;21134;-74
2023/09/15 06:16:43;;;;;;;8.40;7.70;;;10.60;99.90;;;;;;5058643;28;20465;-74
2023/09/15 06:19:11;;;;;;;7.50;6.80;;;10.80;99.90;;;;;;5058707;28;20532;-74
2023/09/15 06:21:40;;;;;;;7.90;7.30;;;10.90;99.90;;;;;;5059568;28;20827;-74
2023/09/15 06:24:08;;;;;;;6.70;6.00;;;11.00;99.90;;;;;;5059636;28;20465;-74
2023/09/15 06:26:38;;;;;;;7.20;6.03;;;11.10;99.90;;;;;;5058823;28;20440;-74
2023/09/15 06:29:06;;;;;;;7.30;6.70;;;11.20;99.90;;;;;;5058560;28;20450;-74
2023/09/15 06:31:34;;;;;;;6.40;5.87;;;11.30;99.90;;;;;;5059831;28;20446;-74
2023/09/15 06:34:03;;;;;;;7.33;6.50;;;11.40;99.90;;;;;;5060814;28;20851;-74
2023/09/15 06:36:31;;;;;;;6.43;5.93;;;11.50;99.90;;;;;;5059373;28;20505;-74
2023/09/15 06:38:59;;;;;;;7.80;7.10;;;11.50;99.90;;;;;;5060089;28;20503;-74
2023/09/15 06:41:27;;;;;;;7.03;6.40;;;11.60;99.90;;;;;;5056175;28;20437;-75
2023/09/15 06:43:56;;;;;;;5.97;5.47;;;11.60;99.90;;;;;;5057077;28;20477;-74
2023/09/15 06:46:26;;;;;;;6.37;5.83;;;11.60;99.90;;;;;;5056783;28;20437;-74
2023/09/15 06:48:55;;;;;;;6.10;5.50;;;11.60;99.90;;;;;;5055008;28;20442;-74
2023/09/15 06:51:23;;;;;;;6.20;5.57;;;11.60;99.90;;;;;;5056452;28;20781;-75
2023/09/15 06:53:52;;;;;;;7.60;5.47;;;11.60;99.90;;;;;;5056274;28;20469;-75
2023/09/15 06:56:20;;;;;;;6.33;5.73;;;11.70;99.90;;;;;;5056229;28;20446;-74
2023/09/15 06:58:48;;;;;;;6.70;6.10;;;11.70;99.90;;;;;;5056363;28;20473;-74
2023/09/15 07:01:18;;;;;;;6.03;5.53;;;11.80;99.90;;;;;;5055094;28;20496;-74
2023/09/15 07:03:46;;;;;;;5.90;5.23;;;11.80;99.90;;;;;;5054557;28;20462;-74
2023/09/15 07:06:14;;;;;;;6.70;6.00;;;11.80;99.90;;;;;;5054966;28;20857;-74
2023/09/15 07:08:42;;;;;;;8.83;6.07;;;11.90;99.90;;;;;;5056156;28;20496;-74
2023/09/15 07:11:11;;;;;;;6.43;5.83;;;11.90;99.90;;;;;;5054577;28;20473;-74
2023/09/15 07:13:39;;;;;;;6.80;6.10;;;11.90;99.90;;;;;;5055954;28;20565;-74
2023/09/15 07:16:07;;;;;;;7.00;6.30;;;12.00;99.90;;;;;;5054290;28;20481;-74
2023/09/15 07:18:38;;;;;;;6.70;6.07;;;12.00;99.90;;;;;;5054602;28;20446;-74
2023/09/15 07:21:06;;;;;;;8.17;6.03;;;12.10;99.90;;;;;;5056202;28;20999;-74
2023/09/15 07:23:34;;;;;;;6.17;5.57;;;12.10;99.90;;;;;;5054028;28;20465;-74
2023/09/15 07:26:02;;;;;;;6.90;6.30;;;12.20;99.90;;;;;;5055477;28;20872;-74
2023/09/15 07:28:30;;;;;;;5.77;5.27;;;12.20;99.90;;;;;;5054586;28;20473;-74
2023/09/15 07:31:03;;;;;;;9.30;6.80;;;12.30;99.90;;;;;;5055677;28;20434;-74
2023/09/15 07:33:32;;;;;;;6.50;5.63;;;12.30;99.90;;;;;;5054004;28;20466;-74
2023/09/15 07:36:02;;;;;;;7.70;6.77;;;12.40;99.90;;;;;;5054488;28;20534;-74
2023/09/15 07:38:31;;;;;;;5.83;5.03;;;12.40;99.90;;;;;;5055313;28;20948;-74
2023/09/15 07:41:01;;;;;;;6.90;6.20;;;12.50;99.90;;;;;;5055288;28;20450;-74
2023/09/15 07:43:29;;;;;;;6.47;5.40;;;12.50;99.90;;;;;;5053589;28;20801;-74
2023/09/15 07:45:57;;;;;;;6.87;6.27;;;12.60;99.90;;;;;;5054849;28;20456;-74
2023/09/15 07:48:27;;;;;;;6.53;5.83;;;12.70;99.90;;;;;;5054006;28;20450;-74
2023/09/15 07:50:55;;;;;;;6.20;5.40;;;12.70;99.90;;;;;;5054907;28;20453;-74
2023/09/15 07:53:25;;;;;;;6.23;5.20;;;12.80;99.90;;;;;;5055268;28;20520;-74
2023/09/15 07:55:53;;;;;;;5.90;5.30;;;12.90;99.90;;;;;;5054762;28;20470;-74
2023/09/15 07:58:22;;;;;;;5.93;5.33;;;13.00;99.90;;;;;;5053779;28;20442;-74
2023/09/15 08:00:50;;;;;;;6.30;5.67;;;13.20;99.90;;;;;;5053603;28;20450;-74
2023/09/15 08:03:18;;;;;;;8.90;5.50;;;13.30;99.90;;;;;;5055065;28;20484;-74
2023/09/15 08:05:46;;;;;;;6.90;6.30;;;13.40;99.90;;;;;;5053938;28;20442;-74
2023/09/15 08:08:14;;;;;;;6.57;5.70;;;13.60;99.90;;;;;;5054876;28;20438;-75
2023/09/15 08:10:45;;;;;;;7.33;5.73;;;13.70;99.90;;;;;;5055001;28;20477;-74
2023/09/15 08:13:13;;;;;;;6.83;6.13;;;13.80;99.90;;;;;;5055137;28;20952;-74
2023/09/15 08:15:42;;;;;;;7.13;5.20;;;14.00;99.90;;;;;;5058083;28;20466;-74
2023/09/15 08:18:10;;;;;;;6.00;4.90;;;14.10;99.90;;;;;;5057468;28;20434;-74
2023/09/15 08:20:39;;;;;;;7.07;5.30;;;14.30;99.90;;;;;;5056212;28;20810;-74
2023/09/15 08:23:07;;;;;;;7.80;5.90;;;14.40;99.90;;;;;;5054223;28;20449;-74
2023/09/15 08:25:37;;;;;;;6.63;4.77;;;14.50;99.90;;;;;;5055054;28;20434;-74
2023/09/15 08:28:08;;;;;;;7.67;5.30;;;14.60;99.90;;;;;;5054263;28;20438;-75
2023/09/15 08:30:37;;;;;;;7.50;5.20;;;14.70;99.90;;;;;;5054604;28;20448;-74
2023/09/15 08:33:06;;;;;;;6.30;5.13;;;14.80;99.90;;;;;;5054297;28;20488;-74
2023/09/15 08:35:34;;;;;;;6.53;4.37;;;14.90;99.90;;;;;;5054230;28;20462;-74
2023/09/15 08:38:03;;;;;;;5.53;4.93;;;15.00;99.90;;;;;;5054613;28;20515;-74
2023/09/15 08:40:39;;;;;;;6.93;4.93;;;15.10;99.90;;;;;;5054732;28;20995;-75
2023/09/15 08:43:08;;;;;;;6.13;4.93;;;15.20;99.90;;;;;;5054414;28;20445;-75
2023/09/15 08:45:38;;;;;;;7.23;4.73;;;15.30;99.90;;;;;;5055124;28;20481;-74
2023/09/15 08:48:08;;;;;;;6.50;4.87;;;15.40;99.90;;;;;;5054305;28;20405;-74
2023/09/15 08:50:39;;;;;;;4.67;4.17;;;15.50;99.90;;;;;;5052850;28;20442;-74
2023/09/15 08:53:09;;;;;;;6.13;4.40;;;15.60;99.90;;;;;;5053110;28;20454;-74
2023/09/15 08:55:37;;;;;;;7.57;4.80;;;15.70;99.90;;;;;;5052861;28;20525;-74
2023/09/15 08:58:08;;;;;;;5.23;4.10;;;15.80;99.90;;;;;;5053767;28;20446;-74
2023/09/15 09:00:38;;;;;;;7.33;5.30;;;15.90;99.90;;;;;;5054737;28;20397;-74
2023/09/15 09:03:06;;;;;;;6.30;5.10;;;16.00;99.90;;;;;;5053064;28;20470;-74
2023/09/15 09:05:36;;;;;;;5.87;4.67;;;16.10;99.90;;;;;;5053676;28;20404;-74
2023/09/15 09:08:04;;;;;;;8.17;4.87;;;16.20;99.90;;;;;;5053872;28;20442;-74
2023/09/15 09:10:33;;;;;;;6.57;4.40;;;16.30;99.90;;;;;;5053103;28;20998;-74
2023/09/15 09:13:01;;;;;;;5.73;4.57;;;16.40;99.90;;;;;;5054546;28;20442;-74
2023/09/15 09:15:33;;;;;;;4.90;4.10;;;16.50;99.90;;;;;;5054489;28;20490;-74
2023/09/15 09:18:01;;;;;;;5.30;4.33;;;16.50;99.90;;;;;;5054483;28;20397;-74
2023/09/15 09:20:30;;;;;;;6.50;4.83;;;16.60;99.90;;;;;;5053248;28;20421;-72
2023/09/15 09:22:59;;;;;;;6.03;4.17;;;16.70;99.90;;;;;;5055013;28;20417;-72
2023/09/15 09:25:28;;;;;;;5.00;4.47;;;16.80;99.90;;;;;;5053356;28;20963;-72
2023/09/15 09:27:57;;;;;;;5.40;4.90;;;16.90;99.90;;;;;;5054967;28;20453;-73
2023/09/15 09:30:29;;;;;;;5.40;4.23;;;17.00;99.90;;;;;;5054153;28;20419;-74
2023/09/15 09:32:59;;;;;;;5.60;4.70;;;17.10;99.90;;;;;;5054663;28;20818;-75
2023/09/15 09:35:27;;;;;;;8.50;5.70;;;17.20;99.90;;;;;;5054295;28;20465;-74
2023/09/15 09:37:57;;;;;;;5.47;4.20;;;17.30;99.90;;;;;;5052965;28;20443;-73
2023/09/15 09:40:26;;;;;;;5.70;4.87;;;17.30;99.90;;;;;;5053842;28;20408;-74
2023/09/15 09:42:55;;;;;;;4.60;4.20;;;17.40;99.90;;;;;;5052947;28;20456;-74
2023/09/15 09:45:26;;;;;;;5.80;4.67;;;17.50;99.90;;;;;;5052800;28;20470;-73
2023/09/15 09:47:55;;;;;;;7.23;3.87;;;17.60;99.90;;;;;;5052986;28;20481;-74
2023/09/15 09:50:26;;;;;;;5.10;4.00;;;17.70;99.90;;;;;;5054445;28;20417;-74
2023/09/15 09:52:54;;;;;;;5.77;5.00;;;17.80;99.90;;;;;;5052697;28;20401;-74
2023/09/15 09:55:24;;;;;;;5.70;4.23;;;17.90;99.90;;;;;;5053924;28;20444;-74
2023/09/15 09:57:53;;;;;;;4.77;3.53;;;18.00;99.90;;;;;;5054510;28;20418;-74
2023/09/15 10:00:22;;;;;;;5.53;4.10;;;18.00;99.90;;;;;;5052720;28;20552;-74
2023/09/15 10:02:51;;;;;;;7.93;4.40;;;18.10;99.90;;;;;;5054185;28;20496;-74
2023/09/15 10:05:19;;;;;;;6.50;4.87;;;18.20;99.90;;;;;;5052454;28;20453;-74
2023/09/15 10:07:49;;;;;;;11.70;5.57;;;18.30;99.90;;;;;;5052521;28;20442;-75
2023/09/15 10:10:19;;;;;;;5.83;4.00;;;18.40;99.90;;;;;;5052903;28;20422;-74
2023/09/15 10:12:48;;;;;;;5.03;3.80;;;18.40;99.90;;;;;;5054440;28;20536;-74
2023/09/15 10:15:16;;;;;;;4.60;4.20;;;18.50;99.90;;;;;;5052738;28;20477;-74
2023/09/15 10:17:45;;;;;;;4.73;4.00;;;18.50;99.90;;;;;;5057537;28;20469;-74
2023/09/15 10:20:13;;;;;;;4.00;3.53;;;18.60;99.90;;;;;;5056867;28;20929;-74
2023/09/15 10:22:41;;;;;;;5.23;4.80;;;18.70;99.90;;;;;;5057892;28;20456;-74
2023/09/15 10:25:17;;;;;;;5.70;5.10;;;18.70;99.90;;;;;;5055312;28;20473;-74
2023/09/15 10:27:46;;;;;;;5.40;4.40;;;18.80;99.90;;;;;;5056570;28;20426;-74
2023/09/15 10:30:15;;;;;;;4.70;4.20;;;18.80;99.90;;;;;;5056157;28;20441;-75
2023/09/15 10:32:44;;;;;;;7.37;4.73;;;18.80;99.90;;;;;;5056425;28;20472;-74
2023/09/15 10:35:13;;;;;;;5.87;4.17;;;18.90;99.90;;;;;;5054676;28;20470;-74
2023/09/15 10:37:42;;;;;;;5.27;4.43;;;18.90;99.90;;;;;;5056125;28;20441;-74
2023/09/15 10:40:13;;;;;;;4.80;4.30;;;19.00;99.90;;;;;;5056307;28;20507;-75
2023/09/15 10:42:49;;;;;;;5.50;4.80;;;19.00;99.90;;;;;;5056008;28;20457;-75
2023/09/15 10:45:17;;;;;;;5.00;4.03;;;19.10;99.90;;;;;;5055838;28;20431;-74
2023/09/15 10:47:56;;;;;;;5.30;4.40;;;19.10;99.90;;;;;;5054641;28;20453;-75
2023/09/15 10:50:31;;;;;;;6.90;4.10;;;19.20;99.90;;;;;;5056166;28;20430;-75
2023/09/15 10:53:10;;;;;;;6.20;4.20;;;19.20;99.90;;;;;;5054781;28;20441;-75
2023/09/15 10:55:40;;;;;;;4.97;4.37;;;19.30;99.90;;;;;;5055656;28;20469;-75
2023/09/15 10:58:10;;;;;;;6.43;4.27;;;19.30;99.90;;;;;;5055745;28;20430;-75
2023/09/15 11:00:40;;;;;;;5.10;3.87;;;19.30;99.90;;;;;;5055699;28;20440;-75
2023/09/15 11:03:08;;;;;;;6.13;4.90;;;19.40;99.90;;;;;;5055560;28;20446;-75
2023/09/15 11:05:37;;;;;;;5.90;4.43;;;19.50;99.90;;;;;;5055578;28;20474;-75
2023/09/15 11:08:06;;;;;;;5.70;4.40;;;19.50;99.90;;;;;;5055743;28;20492;-75
2023/09/15 11:10:34;;;;;;;6.53;4.70;;;19.50;99.90;;;;;;5055421;28;20450;-75
2023/09/15 11:13:07;;;;;;;5.27;4.33;;;19.60;99.90;;;;;;5055442;28;20411;-75
2023/09/15 11:15:35;;;;;;;4.37;3.97;;;19.60;99.90;;;;;;5055277;28;20470;-75
2023/09/15 11:18:04;;;;;;;5.53;4.37;;;19.70;99.90;;;;;;5055329;28;20529;-75
2023/09/15 11:20:32;;;;;;;6.20;5.07;;;19.70;99.90;;;;;;5055289;28;20442;-75
2023/09/15 11:23:00;;;;;;;6.07;4.43;;;19.70;99.90;;;;;;5055049;28;20468;-75
2023/09/15 11:25:32;;;;;;;4.90;4.40;;;19.80;99.90;;;;;;5055193;28;20418;-75
2023/09/15 11:28:01;;;;;;;5.60;4.07;;;19.80;99.90;;;;;;5054579;28;20438;-75
2023/09/15 11:30:31;;;;;;;6.40;4.37;;;19.80;99.90;;;;;;5053725;28;20450;-75
2023/09/15 11:33:06;;;;;;;5.70;4.20;;;19.90;99.90;;;;;;5055065;28;20418;-74
2023/09/15 11:35:35;;;;;;;5.17;4.57;;;19.90;99.90;;;;;;5054009;28;20456;-75
2023/09/15 11:38:03;;;;;;;5.03;4.13;;;20.00;99.90;;;;;;5060115;28;20449;-76
2023/09/15 11:40:33;;;;;;;6.20;4.77;;;20.00;99.90;;;;;;5061073;28;20435;-75
2023/09/15 11:43:02;;;;;;;7.07;4.27;;;20.00;99.90;;;;;;5056755;28;20449;-75
2023/09/15 11:45:33;;;;;;;6.07;5.00;;;20.10;99.90;;;;;;5055953;28;20943;-75
2023/09/15 11:48:03;;;;;;;5.50;4.43;;;20.20;99.90;;;;;;5055471;28;20874;-75
2023/09/15 11:50:33;;;;;;;4.90;4.40;;;20.20;99.90;;;;;;5055151;28;20419;-75
2023/09/15 11:53:02;;;;;;;4.63;4.23;;;20.20;99.90;;;;;;5054763;28;20466;-76
2023/09/15 11:55:31;;;;;;;4.33;3.93;;;20.30;99.90;;;;;;5054923;28;20438;-76
2023/09/15 11:57:59;;;;;;;4.87;4.47;;;20.30;99.90;;;;;;5054607;28;20528;-76
2023/09/15 12:00:30;;;;;;;6.10;4.40;;;20.30;99.90;;;;;;5055046;28;20944;-76
2023/09/15 12:03:03;;;;;;;8.70;5.00;;;20.30;99.90;;;;;;5054784;28;20507;-76
2023/09/15 12:05:31;;;;;;;7.30;5.60;;;20.40;99.90;;;;;;5053279;28;20862;-75
2023/09/15 12:07:59;;;;;;;8.67;5.17;;;20.40;99.90;;;;;;5053226;28;20467;-75
2023/09/15 12:10:28;;;;;;;4.70;4.20;;;20.50;99.90;;;;;;5054596;28;20441;-75
2023/09/15 12:12:59;;;;;;;5.50;5.00;;;20.50;99.90;;;;;;5054386;28;20449;-74
2023/09/15 12:15:28;;;;;;;4.97;3.83;;;20.50;99.90;;;;;;5054219;28;20500;-75
2023/09/15 12:17:57;;;;;;;4.90;4.40;;;20.60;99.90;;;;;;5054153;28;20527;-75
2023/09/15 12:20:26;;;;;;;5.10;3.80;;;20.60;99.90;;;;;;5054185;28;20430;-75
2023/09/15 12:22:55;;;;;;;5.60;5.00;;;20.70;99.90;;;;;;5054337;28;20438;-75
2023/09/15 12:25:23;;;;;;;5.30;4.80;;;20.70;99.90;;;;;;5054062;28;20952;-75
2023/09/15 12:27:53;;;;;;;7.80;4.87;;;20.70;99.90;;;;;;5053976;28;20429;-75
2023/09/15 12:30:23;;;;;;;7.53;4.23;;;20.70;99.90;;;;;;5052644;28;20948;-75
2023/09/15 12:32:51;;;;;;;7.50;3.90;;;20.80;99.90;;;;;;5054152;28;20434;-75
2023/09/15 12:35:21;;;;;;;6.87;4.77;;;20.80;99.90;;;;;;5053795;28;20445;-75
2023/09/15 12:37:55;;;;;;;4.10;3.67;;;20.80;99.90;;;;;;5051907;28;20466;-75
2023/09/15 12:40:23;;;;;;;5.00;4.10;;;20.90;99.90;;;;;;5053793;28;20423;-75
2023/09/15 12:42:51;;;;;;;6.60;3.80;;;20.90;99.90;;;;;;5053739;28;20540;-75
2023/09/15 12:45:21;;;;;;;5.20;3.90;;;21.00;99.90;;;;;;5052364;28;20490;-75
2023/09/15 12:47:49;;;;;;;5.10;4.23;;;21.00;99.90;;;;;;5053587;28;20552;-75
2023/09/15 12:50:17;;;;;;;5.60;4.10;;;21.00;99.90;;;;;;5053583;28;20513;-75
2023/09/15 12:52:45;;;;;;;4.47;4.00;;;21.10;99.90;;;;;;5053630;28;20438;-75